Terminal Aerodrome Forecast
Issued by NWS Duluth, MN

Home | Current Version | Previous Version | Text Only | Print | Product List | Glossary On
Versions: 1 2 3 4 5 6 7 8 9 10 11 12 13 14 15 16 17 18 19 20 21
000
FTUS43 KDLH 202341
TAFDLH
TAF
KDLH 202341Z 2100/2124 14006KT P6SM SCT030
     FM210600 16005KT P6SM VCTS SCT050CB SCT100
     FM211000 17005KT 4SM -SHRA VCTS BKN025CB OVC040
     FM211400 19006KT P6SM VCSH SCT025 BKN150
     FM211800 28011KT P6SM SCT050=

USA.gov is the U.S. government's official web portal to all federal, state and local government web resources and services.